Latest Weather Observations for Leigh Creek

IDS60801

Issued at 7:05 pm CDT Friday 31 October 2014 (issued every 30 minutes, with the page automatically refreshed every 10 minutes)

About weather observations | Map of weather stations | Latest weather observations for SA | Other Formats
Station Details ID: 017110 Name: LEIGH CREEK AIRPORT Lat: -30.60 Lon: 138.42 Height: 258.8 m
Data from the previous 72 hours. | See also: Recent months at Leigh Creek
Date/Time
CDT
Temp
°C
App
Temp
°C
Dew
Point
Rel
Hum
%
Delta-T
°C
Wind Press
QNH
hPa
Press
MSL
hPa
Rain
since 9 am
mm
Dir
 
Spd
km/h
Gust
km/h
Spd
kts
Gust
kts
31/07:00pm 33.9 27.2 5.4 17 15.5 NNW 30 41 16 22 1002.3 1001.5 0.0
31/06:30pm 34.8 27.8 6.2 17 15.8 NW 32 37 17 20 1002.2 1001.4 0.0
31/06:00pm 35.2 29.3 5.6 16 16.2 NW 26 41 14 22 1002.2 1001.4 0.0
31/05:34pm 35.8 29.2 6.1 16 16.4 NW 30 48 16 26 1002.5 1001.7 0.0
31/05:30pm 36.0 29.0 6.2 16 16.6 NW 32 48 17 26 1002.6 1001.8 0.0
31/05:21pm 36.0 29.8 6.2 16 16.5 W 28 46 15 25 1002.5 1001.7 0.0
31/05:00pm 35.9 30.3 7.0 17 16.2 WNW 26 37 14 20 1002.8 1002.0 0.0
31/04:30pm 35.2 28.3 7.3 18 15.7 WNW 33 56 18 30 1003.5 1002.7 0.0
31/04:16pm 35.6 29.3 7.6 18 15.8 WNW 30 48 16 26 1003.7 1002.9 0.0
31/04:00pm 36.0 29.5 8.0 18 15.9 NW 32 43 17 23 1004.0 1003.2 0.0
31/03:54pm 35.7 29.8 7.7 18 15.8 WNW 28 46 15 25 1004.0 1003.2 0.0
31/03:30pm 34.3 28.2 6.6 18 15.4 NW 28 41 15 22 1004.6 1003.7 0.0
31/03:00pm 34.6 27.2 6.8 18 15.5 NW 35 54 19 29 1005.0 1004.1 0.0
31/02:30pm 35.4 27.6 6.6 17 16.1 NNW 37 59 20 32 1005.4 1004.5 0.0
31/02:27pm 35.7 28.5 6.0 16 16.4 NNW 33 59 18 32 1005.3 1004.4 0.0
31/02:00pm 36.0 29.4 6.2 16 16.5 NW 30 41 16 22 1005.8 1005.0 0.0
31/01:42pm 35.1 28.4 5.5 16 16.1 NW 30 50 16 27 1006.2 1005.4 0.0
31/01:30pm 35.3 28.2 5.7 16 16.3 NW 32 46 17 25 1006.3 1005.5 0.0
31/01:13pm 35.3 27.9 3.8 14 16.7 NNW 32 52 17 28 1006.6 1005.8 0.0
31/01:00pm 34.7 27.0 3.3 14 16.5 NNW 33 46 18 25 1006.9 1006.1 0.0
31/12:35pm 34.8 26.0 -1.3 10 17.6 NNW 35 54 19 29 1007.2 1006.4 0.0
31/12:30pm 34.7 25.5 -1.4 10 17.6 NNW 37 52 20 28 1007.3 1006.5 0.0
31/12:16pm 35.5 25.8 -2.2 9 18.3 NNW 39 82 21 44 1007.4 1006.6 0.0
31/12:00pm 35.1 25.7 -2.5 9 18.1 NNW 37 56 20 30 1007.8 1007.0 0.0
31/11:52am 34.5 25.5 -2.9 9 17.8 NNW 35 54 19 29 1007.9 1007.1 0.0
31/11:30am 35.2 26.8 -2.4 9 18.1 N 32 44 17 24 1008.2 1007.4 0.0
31/11:00am 33.4 25.4 -2.3 10 17.0 N 30 43 16 23 1008.6 1007.7 0.0
31/10:30am 32.7 24.6 -2.9 10 16.7 N 30 39 16 21 1008.8 1008.0 0.0
31/10:00am 31.2 23.2 -2.7 11 15.8 N 30 39 16 21 1009.1 1008.3 0.0
31/09:30am 31.2 23.5 -2.7 11 15.8 N 28 37 15 20 1009.3 1008.5 0.0
31/09:00am 30.2 24.3 -2.3 12 15.1 NNW 19 26 10 14 1009.5 1008.7 -
31/08:30am 28.2 23.5 -1.8 14 13.9 N 13 17 7 9 1009.3 1008.5 -
31/08:00am 25.0 22.4 -1.7 17 12.1 WSW 2 7 1 4 1009.2 1008.4 -
31/07:30am 22.3 20.2 -1.1 21 10.5 CALM 0 0 0 0 1009.1 1008.3 -
31/07:00am 21.8 19.6 -1.5 21 10.3 CALM 0 0 0 0 1008.9 1008.1 -
31/06:30am 22.2 19.9 -2.5 19 10.8 CALM 0 0 0 0 1008.8 1008.0 -
31/06:00am 21.6 18.1 -1.6 21 10.2 WSW 7 11 4 6 1008.7 1007.8 -
31/05:30am 22.2 18.6 -1.8 20 10.6 SE 7 9 4 5 1008.3 1007.5 -
31/05:00am 23.4 19.8 -2.2 18 11.3 S 7 9 4 5 1008.6 1007.7 -
31/04:30am 22.5 19.1 -2.2 19 10.8 SSW 6 7 3 4 1008.8 1008.0 -
31/04:00am 22.8 18.5 -2.0 19 10.9 ESE 11 11 6 6 1008.9 1008.1 -
31/03:30am 22.9 19.9 -1.9 19 11.0 ESE 4 7 2 4 1009.1 1008.3 -
31/03:00am 23.9 20.2 -2.6 17 11.7 SSE 7 9 4 5 1009.5 1008.7 0.0
31/02:30am 23.7 19.6 -2.8 17 11.6 SSE 9 9 5 5 1009.7 1008.9 -
31/02:00am 23.4 21.1 -2.2 18 11.3 CALM 0 0 0 0 1009.8 1009.0 -
31/01:30am 24.1 20.1 -2.4 17 11.7 N 9 13 5 7 1010.5 1009.7 -
31/01:00am 23.9 19.6 -1.8 18 11.5 NNE 11 13 6 7 1011.2 1010.4 -
31/12:30am 24.2 22.0 -1.6 18 11.6 CALM 0 4 0 2 1011.6 1010.8 -
31/12:00am 24.0 20.1 -1.8 18 11.5 SE 9 13 5 7 1012.1 1011.4 -
 
Date/Time
CDT
Temp
°C
App
Temp
°C
Dew
Point
Rel
Hum
%
Delta-T
°C
Wind Press
QNH
hPa
Press
MSL
hPa
Rain
since 9 am
mm
Dir
 
Spd
km/h
Gust
km/h
Spd
kts
Gust
kts
30/11:30pm 24.1 19.7 -2.4 17 11.7 ESE 11 13 6 7 1011.6 1010.8 -
30/11:00pm 24.4 19.5 -3.0 16 12.0 ESE 13 15 7 8 1011.6 1010.8 -
30/10:30pm 24.8 20.3 -3.6 15 12.4 ESE 11 13 6 7 1011.7 1010.9 -
30/10:00pm 25.3 20.4 -3.2 15 12.5 E 13 15 7 8 1011.6 1010.8 -
30/09:30pm 25.3 20.4 -3.2 15 12.6 ESE 13 15 7 8 1011.5 1010.7 -
30/09:00pm 26.8 22.7 -2.9 14 13.3 SE 9 11 5 6 1011.4 1010.6 0.0
30/08:30pm 28.8 26.0 -3.4 12 14.5 SSW 2 7 1 4 1011.5 1010.7 -
30/08:00pm 29.2 25.5 -3.1 12 14.7 SSW 7 9 4 5 1011.5 1010.7 -
30/07:30pm 30.2 25.7 -3.5 11 15.4 SW 11 15 6 8 1011.4 1010.6 -
30/07:00pm 31.5 25.8 -3.8 10 16.2 WSW 17 22 9 12 1011.3 1010.5 -
30/06:30pm 32.1 26.1 -3.3 10 16.4 WSW 19 24 10 13 1011.3 1010.5 -
30/06:00pm 32.8 26.1 -4.2 9 17.0 WSW 22 30 12 16 1011.2 1010.4 -
30/05:30pm 33.6 28.7 -3.6 9 17.4 WSW 13 20 7 11 1011.1 1010.3 -
30/05:00pm 33.5 28.9 -3.7 9 17.3 W 11 26 6 14 1011.2 1010.4 -
30/04:30pm 33.9 27.5 -4.9 8 17.8 W 20 28 11 15 1011.2 1010.4 -
30/04:00pm 34.0 29.5 -3.3 9 17.5 SSW 11 20 6 11 1011.4 1010.6 -
30/03:30pm 34.4 28.6 -4.6 8 18.0 SW 17 26 9 14 1011.7 1010.9 -
30/03:00pm 33.7 29.5 -3.5 9 17.4 WSW 9 17 5 9 1012.2 1011.5 -
30/02:30pm 34.0 28.4 -3.3 9 17.5 SW 17 28 9 15 1012.7 1011.9 0.2
30/02:00pm 33.8 30.0 -3.5 9 17.5 WSW 7 22 4 12 1013.2 1012.4 0.0
30/01:30pm 34.0 27.4 -3.3 9 17.5 SW 22 32 12 17 1013.7 1012.9 0.0
30/01:00pm 33.7 28.0 -3.5 9 17.4 NW 17 28 9 15 1014.0 1013.2 0.0
30/12:30pm 32.6 28.4 -4.3 9 16.9 N 9 17 5 9 1014.4 1013.6 0.0
30/12:00pm 33.1 27.0 -4.0 9 17.1 WNW 19 26 10 14 1014.8 1014.0 0.0
30/11:30am 32.8 27.8 -4.2 9 17.0 N 13 22 7 12 1015.2 1014.4 0.0
30/11:00am 31.7 27.2 -3.6 10 16.2 NNW 11 19 6 10 1015.4 1014.6 0.0
30/10:30am 31.4 26.6 -2.6 11 15.9 N 13 22 7 12 1015.6 1014.9 0.0
30/10:00am 30.5 25.4 -2.1 12 15.2 N 15 28 8 15 1015.7 1015.0 0.0
30/09:30am 29.0 24.8 -1.2 14 14.2 N 11 19 6 10 1015.9 1015.2 0.0
30/09:00am 25.1 22.3 -0.1 19 11.7 ESE 4 7 2 4 1016.0 1015.3 0.0
30/08:30am 22.1 20.1 0.0 23 10.1 CALM 0 4 0 2 1015.7 1015.0 0.0
30/08:00am 20.1 16.9 -0.5 25 9.1 ESE 6 9 3 5 1015.7 1015.0 0.0
30/07:30am 18.5 15.2 -1.3 26 8.5 SSE 6 9 3 5 1015.4 1014.6 0.0
30/07:00am 18.0 14.7 -1.3 27 8.3 SSE 6 7 3 4 1015.2 1014.4 0.0
30/06:30am 18.5 14.2 -1.3 26 8.5 SSE 11 13 6 7 1014.7 1013.9 0.0
30/06:00am 16.7 13.3 -0.9 30 7.5 SSE 7 9 4 5 1014.3 1013.5 0.0
30/05:30am 16.8 13.0 -0.9 30 7.6 ESE 9 13 5 7 1014.2 1013.4 0.0
30/05:00am 17.4 13.3 -0.3 30 7.7 ESE 11 11 6 6 1014.4 1013.6 0.0
30/04:30am 17.6 14.2 -0.6 29 7.9 SE 7 9 4 5 1014.7 1013.9 0.0
30/04:00am 16.7 13.8 -1.4 29 7.6 SE 4 9 2 5 1014.7 1013.9 0.0
30/03:30am 18.0 16.0 -0.3 29 8.0 CALM 0 0 0 0 1014.9 1014.1 0.0
30/03:00am 18.4 16.4 -0.4 28 8.2 CALM 0 6 0 3 1015.0 1014.2 0.0
30/02:30am 17.2 14.0 -0.5 30 7.7 SE 6 9 3 5 1015.3 1014.5 0.0
30/02:00am 18.3 15.2 0.0 29 8.1 SE 6 9 3 5 1015.3 1014.5 0.0
30/01:30am 18.6 15.1 -1.3 26 8.6 SE 7 9 4 5 1015.6 1014.9 0.0
30/01:00am 19.9 15.8 -3.0 21 9.6 SE 9 13 5 7 1015.8 1015.1 0.0
30/12:30am 20.0 16.1 -4.3 19 10.0 SSE 7 9 4 5 1016.2 1015.5 0.0
30/12:00am 20.4 16.7 -4.7 18 10.3 ESE 6 11 3 6 1016.1 1015.4 0.0
 
Date/Time
CDT
Temp
°C
App
Temp
°C
Dew
Point
Rel
Hum
%
Delta-T
°C
Wind Press
QNH
hPa
Press
MSL
hPa
Rain
since 9 am
mm
Dir
 
Spd
km/h
Gust
km/h
Spd
kts
Gust
kts
29/11:30pm 20.8 17.1 -4.4 18 10.4 SE 6 9 3 5 1016.4 1015.7 0.0
29/11:00pm 21.4 16.7 -5.4 16 10.9 SSW 11 13 6 7 1016.4 1015.7 0.0
29/10:30pm 23.1 19.2 -4.9 15 11.7 SSW 7 9 4 5 1016.6 1015.8 0.0
29/10:00pm 24.0 20.2 -5.1 14 12.2 SSW 6 9 3 5 1016.3 1015.6 0.0
29/09:30pm 24.5 20.7 -5.7 13 12.6 SSW 6 9 3 5 1016.1 1015.4 0.0
29/09:00pm 25.4 20.9 -7.2 11 13.3 SSW 9 15 5 8 1015.8 1015.1 0.0
29/08:30pm 25.7 20.4 -6.9 11 13.4 SSW 13 15 7 8 1015.8 1015.1 0.0
29/08:00pm 27.4 21.9 -5.6 11 14.2 SSW 15 19 8 10 1015.8 1015.1 0.0
29/07:30pm 28.7 22.2 -5.9 10 14.9 SSW 20 28 11 15 1015.4 1014.6 0.0
29/07:00pm 30.1 23.5 -3.6 11 15.3 S 22 28 12 15 1015.2 1014.4 0.0
29/06:30pm 31.2 27.0 -4.0 10 16.0 WNW 9 20 5 11 1015.1 1014.3 0.0
29/06:00pm 32.0 28.4 -3.4 10 16.4 NW 6 13 3 7 1014.9 1014.1 0.0
29/05:30pm 32.0 26.9 -4.8 9 16.6 NNW 13 19 7 10 1014.9 1014.1 0.0
29/05:00pm 32.7 26.9 -4.3 9 16.9 W 17 24 9 13 1014.9 1014.1 0.0
29/04:30pm 32.3 27.3 -4.6 9 16.8 W 13 20 7 11 1015.0 1014.2 0.0
29/04:00pm 31.9 26.8 -4.9 9 16.6 NW 13 22 7 12 1015.2 1014.4 0.0
29/03:30pm 32.0 26.3 -3.4 10 16.4 W 17 28 9 15 1015.5 1014.8 0.0
29/03:00pm 31.7 26.2 -2.3 11 16.0 W 17 28 9 15 1015.9 1015.2 0.0
29/02:30pm 32.5 26.7 -1.7 11 16.3 W 19 24 10 13 1016.3 1015.6 0.0
29/02:00pm 31.5 26.7 -2.5 11 15.9 NW 13 24 7 13 1016.8 1016.0 0.0
29/01:30pm 30.8 26.6 -0.8 13 15.1 N 11 26 6 14 1017.3 1016.5 0.0
29/01:00pm 30.3 25.3 -1.2 13 14.9 NNE 15 20 8 11 1017.7 1016.9 0.0
29/12:30pm 30.2 26.9 -0.2 14 14.6 NNE 7 20 4 11 1018.2 1017.4 0.0
29/12:00pm 29.9 24.3 1.4 16 14.1 NNW 20 28 11 15 1018.6 1017.8 0.0
29/11:30am 27.9 24.3 0.6 17 13.1 NNW 9 20 5 11 1019.3 1018.6 0.0
29/11:00am 27.9 23.5 0.6 17 13.1 N 13 22 7 12 1019.6 1018.9 0.0
29/10:30am 26.5 23.6 1.7 20 12.0 NW 6 11 3 6 1019.7 1019.0 0.0
29/10:00am 26.1 22.6 1.4 20 11.9 NE 9 19 5 10 1019.8 1019.1 0.0
29/09:30am 25.8 20.9 4.3 25 10.9 E 19 24 10 13 1019.6 1018.9 0.0
29/09:00am 24.3 18.3 5.1 29 9.8 E 26 32 14 17 1019.6 1018.9 0.0
29/08:30am 22.5 16.1 5.0 32 8.8 E 28 33 15 18 1019.5 1018.8 0.0
29/08:00am 21.2 15.5 5.1 35 8.0 ESE 24 28 13 15 1019.5 1018.8 0.0
29/07:30am 18.9 14.3 3.9 37 7.2 ESE 17 22 9 12 1019.2 1018.5 0.0
29/07:00am 16.4 12.8 2.8 40 6.3 SE 11 15 6 8 1019.2 1018.5 0.0
29/06:30am 16.1 10.9 2.5 40 6.2 ESE 19 19 10 10 1018.9 1018.2 0.0
29/06:00am 17.2 11.4 2.4 37 6.8 E 22 28 12 15 1018.9 1018.2 0.0
29/05:30am 14.3 10.0 1.2 41 5.7 SE 13 17 7 9 1019.0 1018.3 0.0
29/05:00am 13.5 9.8 -0.2 39 5.8 SE 9 11 5 6 1018.8 1018.0 0.0
29/04:30am 14.2 10.4 -0.6 36 6.2 ESE 9 11 5 6 1018.7 1017.9 0.0
29/04:00am 14.2 11.7 -1.0 35 6.3 SE 2 7 1 4 1018.6 1017.8 0.0
29/03:30am 13.7 10.4 -1.1 36 6.1 E 6 9 3 5 1018.6 1017.8 0.0
29/03:00am 14.2 10.4 -1.0 35 6.3 ESE 9 13 5 7 1018.5 1017.7 0.0
29/02:30am 14.7 10.9 -1.0 34 6.5 ESE 9 11 5 6 1018.5 1017.7 0.0
29/02:00am 15.7 11.6 -0.1 34 6.8 SE 11 17 6 9 1018.5 1017.7 0.0
29/01:30am 15.9 12.8 0.1 34 6.8 S 6 9 3 5 1018.7 1017.9 0.0
29/01:00am 18.0 16.2 1.1 32 7.6 CALM 0 0 0 0 1018.9 1018.2 0.0
29/12:30am 18.0 15.3 0.6 31 7.7 S 4 7 2 4 1019.0 1018.3 0.0
29/12:00am 18.1 15.5 0.7 31 7.8 S 4 7 2 4 1019.1 1018.4 0.0
 
Date/Time
CDT
Temp
°C
App
Temp
°C
Dew
Point
Rel
Hum
%
Delta-T
°C
Wind Press
QNH
hPa
Press
MSL
hPa
Rain
since 9 am
mm
Dir
 
Spd
km/h
Gust
km/h
Spd
kts
Gust
kts
28/11:30pm 17.5 15.5 -0.2 30 7.7 CALM 0 0 0 0 1019.1 1018.4 0.0
28/11:00pm 18.8 15.7 0.4 29 8.2 SE 6 7 3 4 1019.1 1018.4 0.0
28/10:30pm 18.8 14.5 -1.6 25 8.7 S 11 13 6 7 1019.1 1018.4 0.0
28/10:00pm 19.9 15.2 -1.8 23 9.4 S 13 15 7 8 1018.9 1018.2 0.0
28/09:30pm 21.2 17.2 -2.0 21 10.1 SSW 9 15 5 8 1018.8 1018.0 0.0
28/09:00pm 21.8 15.8 -2.8 19 10.6 SSW 19 24 10 13 1018.4 1017.6 0.0
28/08:30pm 22.6 15.8 -2.2 19 10.9 SSW 24 28 13 15 1018.1 1017.3 0.0
28/08:00pm 23.3 16.3 -3.1 17 11.4 SSW 24 32 13 17 1017.9 1017.1 0.0
28/07:30pm 24.1 17.5 -3.3 16 11.9 SSW 22 30 12 16 1017.8 1017.0 0.0

Other Formats:

Comma delimited format used in spreadsheet applications
http://www.bom.gov.au/fwo/IDS60801/IDS60801.94674.axf

JavaScript Object Notation format (JSON) in row-major order
http://www.bom.gov.au/fwo/IDS60801/IDS60801.94674.json